Home > Products > Valid Products > TAF

000
FTUS42 KFFC 290143 AAA
TAFATL
TAF AMD
KATL 290143Z 2902/3006 31008KT P6SM FEW045 SCT150
     FM291500 31006KT P6SM SCT050 PROB30 2920/2924 6SM -TSRA
      BKN050CB
     FM300000 33008KT P6SM FEW040 SCT250=



000
FTUS42 KFFC 290143 AAA
TAFATL
TAF AMD
KATL 290143Z 2902/3006 31008KT P6SM FEW045 SCT150
     FM291500 31006KT P6SM SCT050 PROB30 2920/2924 6SM -TSRA
      BKN050CB
     FM300000 33008KT P6SM FEW040 SCT250=



000
FTUS42 KFFC 282336
TAFMCN
TAF
KMCN 282336Z 2900/2924 23006KT P6SM FEW060
      TEMPO 2900/2901 VRB12G25KT 5SM TSRA BKN030CB
     FM290200 35004KT P6SM SCT120
     FM291500 31006KT P6SM SCT050 PROB30 2920/2924 6SM -TSRA
      BKN050CB=



000
FTUS42 KFFC 282336
TAFPDK
TAF
KPDK 282336Z 2900/2924 32010KT P6SM FEW060
     FM290200 35004KT P6SM SCT120
     FM291500 31006KT P6SM SCT050 PROB30 2920/2924 6SM -TSRA
      BKN050CB=



000
FTUS42 KFFC 282336
TAFFTY
TAF
KFTY 282336Z 2900/2924 32007KT P6SM FEW060
      TEMPO 2900/2901 VRB12G25KT 5SM TSRA BKN030CB
     FM290200 35004KT P6SM SCT120
     FM291500 31006KT P6SM SCT050 PROB30 2920/2924 6SM -TSRA
      BKN050CB=



000
FTUS42 KFFC 282336
TAFAHN
TAF
KAHN 282336Z 2900/2924 02005KT P6SM BKN100
     FM290200 35004KT P6SM SCT120
     FM291500 31006KT P6SM SCT050 PROB30 2920/2924 6SM -TSRA
      BKN050CB=



000
FTUS42 KFFC 282336
TAFATL
TAF
KATL 282336Z 2900/3006 32007KT P6SM FEW045
      TEMPO 2900/2901 VRB12G25KT 5SM TSRA BKN030CB
     FM290200 35004KT P6SM SCT120
     FM291500 31006KT P6SM SCT050 PROB30 2920/2924 6SM -TSRA
      BKN050CB
     FM300000 33008KT P6SM FEW040 SCT250=



000
FTUS42 KFFC 282336
TAFCSG
TAF
KCSG 282336Z 2900/2924 32008KT P6SM FEW060
     FM290200 35004KT P6SM SCT120
     FM291500 31006KT P6SM SCT050 PROB30 2920/2924 6SM -TSRA
      BKN050CB=



000
FTUS42 KFFC 282336
TAFRYY
TAF
KRYY 282336Z 2900/2924 32007KT P6SM FEW045
     FM290200 35004KT P6SM SCT120
     FM291500 31006KT P6SM SCT050 PROB30 2920/2924 6SM -TSRA
      BKN050CB
      AMD NOT SKED 2904/2912=



000
FTUS42 KFFC 282336
TAFFTY
TAF
KFTY 282336Z 2900/2924 32007KT P6SM FEW060
      TEMPO 2900/2901 VRB12G25KT 5SM TSRA BKN030CB
     FM290200 35004KT P6SM SCT120
     FM291500 31006KT P6SM SCT050 PROB30 2920/2924 6SM -TSRA
      BKN050CB=



000
FTUS42 KFFC 282336
TAFCSG
TAF
KCSG 282336Z 2900/2924 32008KT P6SM FEW060
     FM290200 35004KT P6SM SCT120
     FM291500 31006KT P6SM SCT050 PROB30 2920/2924 6SM -TSRA
      BKN050CB=



000
FTUS42 KFFC 282336
TAFMCN
TAF
KMCN 282336Z 2900/2924 23006KT P6SM FEW060
      TEMPO 2900/2901 VRB12G25KT 5SM TSRA BKN030CB
     FM290200 35004KT P6SM SCT120
     FM291500 31006KT P6SM SCT050 PROB30 2920/2924 6SM -TSRA
      BKN050CB=



000
FTUS42 KFFC 282336
TAFPDK
TAF
KPDK 282336Z 2900/2924 32010KT P6SM FEW060
     FM290200 35004KT P6SM SCT120
     FM291500 31006KT P6SM SCT050 PROB30 2920/2924 6SM -TSRA
      BKN050CB=



000
FTUS42 KFFC 282336
TAFAHN
TAF
KAHN 282336Z 2900/2924 02005KT P6SM BKN100
     FM290200 35004KT P6SM SCT120
     FM291500 31006KT P6SM SCT050 PROB30 2920/2924 6SM -TSRA
      BKN050CB=



000
FTUS42 KFFC 282336
TAFRYY
TAF
KRYY 282336Z 2900/2924 32007KT P6SM FEW045
     FM290200 35004KT P6SM SCT120
     FM291500 31006KT P6SM SCT050 PROB30 2920/2924 6SM -TSRA
      BKN050CB
      AMD NOT SKED 2904/2912=



000
FTUS42 KFFC 282336
TAFATL
TAF
KATL 282336Z 2900/3006 32007KT P6SM FEW045
      TEMPO 2900/2901 VRB12G25KT 5SM TSRA BKN030CB
     FM290200 35004KT P6SM SCT120
     FM291500 31006KT P6SM SCT050 PROB30 2920/2924 6SM -TSRA
      BKN050CB
     FM300000 33008KT P6SM FEW040 SCT250=



000
FTUS42 KFFC 282207 AAB
TAFCSG
TAF AMD
KCSG 282207Z 2822/2918 33006KT P6SM SCT040
      TEMPO 2822/2823 VRB15G28KT 4SM -TSRA SCT020 BKN050CB
     FM290100 00000KT P6SM SCT120
     FM291500 32006KT P6SM SCT050=



000
FTUS42 KFFC 282138 AAC
TAFATL
TAF AMD
KATL 282138Z 2822/2924 32007KT P6SM SCT050
     FM290200 35004KT P6SM SCT120
     FM291500 31006KT P6SM SCT050 PROB30 2918/2924 6SM -TSRA
      BKN050CB=



000
FTUS42 KFFC 282015 AAB
TAFATL
TAF AMD
KATL 282015Z 2820/2924 32007KT P6SM SCT050
      TEMPO 2820/2822 08015G25KT 6SM -TSRA BKN050CB
     FM290200 35004KT P6SM SCT120
     FM291500 31006KT P6SM SCT050 PROB30 2918/2924 6SM -TSRA
      BKN050CB=



000
FTUS42 KFFC 281954 AAA
TAFMCN
TAF AMD
KMCN 281954Z 2820/2918 04003KT P6SM SCT040
      TEMPO 2820/2823 VRB15G25KT 6SM -TSRA BKN050CB
     FM290100 00000KT P6SM SCT120
     FM291500 31006KT P6SM SCT050=



000
FTUS42 KFFC 281954 AAA
TAFFTY
TAF AMD
KFTY 281954Z 2820/2918 32006KT P6SM SCT040
      TEMPO 2820/2823 VRB15G25KT 6SM -TSRA BKN050CB
     FM290100 00000KT P6SM SCT120
     FM291500 31006KT P6SM SCT050=



000
FTUS42 KFFC 281954 AAA
TAFPDK
TAF AMD
KPDK 281954Z 2820/2918 32006KT P6SM SCT040
      TEMPO 2820/2823 VRB15G25KT 6SM -TSRA BKN050CB
     FM290100 00000KT P6SM SCT120
     FM291500 31006KT P6SM SCT050=



000
FTUS42 KFFC 281954 AAA
TAFATL
TAF AMD
KATL 281954Z 2820/2924 32007KT P6SM SCT050
      TEMPO 2820/2823 VRB15G25KT 6SM -TSRA BKN050CB
     FM290200 35004KT P6SM SCT120
     FM291500 31006KT P6SM SCT050 PROB30 2918/2924 6SM -TSRA
      BKN050CB=



000
FTUS42 KFFC 281954 AAA
TAFAHN
TAF AMD
KAHN 281954Z 2820/2918 02006KT P6SM SCT040
      TEMPO 2820/2823 VRB15G25KT 6SM -TSRA BKN050CB
     FM290100 07003KT P6SM SCT120
     FM291500 31006KT P6SM SCT050=



000
FTUS42 KFFC 281954 AAA
TAFRYY
TAF AMD
KRYY 281954Z 2820/2918 32006KT P6SM SCT040
      TEMPO 2820/2823 VRB15G25KT 6SM -TSRA BKN050CB
     FM290100 00000KT P6SM SCT120
     FM291500 31006KT P6SM SCT050=



000
FTUS42 KFFC 281954 AAA
TAFMCN
TAF AMD
KMCN 281954Z 2820/2918 04003KT P6SM SCT040
      TEMPO 2820/2823 VRB15G25KT 6SM -TSRA BKN050CB
     FM290100 00000KT P6SM SCT120
     FM291500 31006KT P6SM SCT050=



000
FTUS42 KFFC 281954 AAA
TAFCSG
TAF AMD
KCSG 281954Z 2820/2918 33006KT P6SM SCT040
      TEMPO 2820/2823 VRB15G25KT 6SM -TSRA BKN050CB
     FM290100 00000KT P6SM SCT120
     FM291500 32006KT P6SM SCT050=



000
FTUS42 KFFC 281954 AAA
TAFPDK
TAF AMD
KPDK 281954Z 2820/2918 32006KT P6SM SCT040
      TEMPO 2820/2823 VRB15G25KT 6SM -TSRA BKN050CB
     FM290100 00000KT P6SM SCT120
     FM291500 31006KT P6SM SCT050=



000
FTUS42 KFFC 281954 AAA
TAFRYY
TAF AMD
KRYY 281954Z 2820/2918 32006KT P6SM SCT040
      TEMPO 2820/2823 VRB15G25KT 6SM -TSRA BKN050CB
     FM290100 00000KT P6SM SCT120
     FM291500 31006KT P6SM SCT050=



000
FTUS42 KFFC 281954 AAA
TAFAHN
TAF AMD
KAHN 281954Z 2820/2918 02006KT P6SM SCT040
      TEMPO 2820/2823 VRB15G25KT 6SM -TSRA BKN050CB
     FM290100 07003KT P6SM SCT120
     FM291500 31006KT P6SM SCT050=



000
FTUS42 KFFC 281954 AAA
TAFCSG
TAF AMD
KCSG 281954Z 2820/2918 33006KT P6SM SCT040
      TEMPO 2820/2823 VRB15G25KT 6SM -TSRA BKN050CB
     FM290100 00000KT P6SM SCT120
     FM291500 32006KT P6SM SCT050=



000
FTUS42 KFFC 281954 AAA
TAFFTY
TAF AMD
KFTY 281954Z 2820/2918 32006KT P6SM SCT040
      TEMPO 2820/2823 VRB15G25KT 6SM -TSRA BKN050CB
     FM290100 00000KT P6SM SCT120
     FM291500 31006KT P6SM SCT050=



000
FTUS42 KFFC 281736
TAFPDK
TAF
KPDK 281736Z 2818/2918 32006KT P6SM SCT040
      TEMPO 2818/2822 VRB15G25KT 6SM -TSRA BKN050CB
     FM290100 00000KT P6SM SCT120
     FM291500 31006KT P6SM SCT050=



000
FTUS42 KFFC 281736
TAFCSG
TAF
KCSG 281736Z 2818/2918 33006KT P6SM SCT040
      TEMPO 2818/2822 VRB15G25KT 6SM -TSRA BKN050CB
     FM290100 00000KT P6SM SCT120
     FM291500 32006KT P6SM SCT050=



000
FTUS42 KFFC 281736
TAFFTY
TAF
KFTY 281736Z 2818/2918 32006KT P6SM SCT040
      TEMPO 2818/2822 VRB15G25KT 6SM -TSRA BKN050CB
     FM290100 00000KT P6SM SCT120
     FM291500 31006KT P6SM SCT050=



000
FTUS42 KFFC 281736
TAFAHN
TAF
KAHN 281736Z 2818/2918 02006KT P6SM SCT040
      TEMPO 2818/2822 VRB15G25KT 6SM -TSRA BKN050CB
     FM290100 07003KT P6SM SCT120
     FM291500 31006KT P6SM SCT050=



000
FTUS42 KFFC 281736
TAFATL
TAF
KATL 281736Z 2818/2924 32007KT P6SM SCT050
      TEMPO 2818/2822 VRB15G25KT 6SM -TSRA BKN050CB
     FM290200 35004KT P6SM SCT120
     FM291500 31006KT P6SM SCT050 PROB30 2918/2924 6SM -TSRA
      BKN050CB=



000
FTUS42 KFFC 281736
TAFMCN
TAF
KMCN 281736Z 2818/2918 04003KT P6SM SCT040
      TEMPO 2818/2822 VRB15G25KT 6SM -TSRA BKN050CB
     FM290100 00000KT P6SM SCT120
     FM291500 31006KT P6SM SCT050=



000
FTUS42 KFFC 281736
TAFRYY
TAF
KRYY 281736Z 2818/2918 32006KT P6SM SCT040
      TEMPO 2818/2822 VRB15G25KT 6SM -TSRA BKN050CB
     FM290100 00000KT P6SM SCT120
     FM291500 31006KT P6SM SCT050=



000
FTUS42 KFFC 281559 AAB
TAFRYY
TAF AMD
KRYY 281559Z 2816/2912 32006KT P6SM SCT040
      TEMPO 2818/2822 VRB15G25KT 6SM -TSRA BKN050CB
     FM290100 00000KT P6SM SCT120=



000
FTUS42 KFFC 281559 AAB
TAFCSG
TAF AMD
KCSG 281559Z 2816/2912 33006KT P6SM SCT040
     FM290100 00000KT P6SM SCT120=



000
FTUS42 KFFC 281559 AAB
TAFFTY
TAF AMD
KFTY 281559Z 2816/2912 32006KT P6SM SCT040
      TEMPO 2818/2822 VRB15G25KT 6SM -TSRA BKN050CB
     FM290100 00000KT P6SM SCT120=



000
FTUS42 KFFC 281559 AAB
TAFPDK
TAF AMD
KPDK 281559Z 2816/2912 32006KT P6SM SCT040
      TEMPO 2818/2822 VRB15G25KT 6SM -TSRA BKN050CB
     FM290100 00000KT P6SM SCT120=



000
FTUS42 KFFC 281559 AAB
TAFAHN
TAF AMD
KAHN 281559Z 2816/2912 02006KT P6SM SCT040
     FM290100 07003KT P6SM SCT120=



000
FTUS42 KFFC 281559 AAB
TAFATL
TAF AMD
KATL 281559Z 2816/2918 32007KT P6SM SCT050
      TEMPO 2818/2822 VRB15G25KT 6SM -TSRA BKN050CB
     FM290200 35004KT P6SM SCT120
     FM291500 31006KT P6SM SCT050=



000
FTUS42 KFFC 281559 AAB
TAFMCN
TAF AMD
KMCN 281559Z 2816/2912 04003KT P6SM SCT040
     FM290100 00000KT P6SM SCT120=



000
FTUS42 KFFC 281559 AAB
TAFRYY
TAF AMD
KRYY 281559Z 2816/2912 32006KT P6SM SCT040
      TEMPO 2818/2822 VRB15G25KT 6SM -TSRA BKN050CB
     FM290100 00000KT P6SM SCT120=



000
FTUS42 KFFC 281559 AAB
TAFCSG
TAF AMD
KCSG 281559Z 2816/2912 33006KT P6SM SCT040
     FM290100 00000KT P6SM SCT120=



000
FTUS42 KFFC 281559 AAB
TAFFTY
TAF AMD
KFTY 281559Z 2816/2912 32006KT P6SM SCT040
      TEMPO 2818/2822 VRB15G25KT 6SM -TSRA BKN050CB
     FM290100 00000KT P6SM SCT120=



000
FTUS42 KFFC 281559 AAB
TAFATL
TAF AMD
KATL 281559Z 2816/2918 32007KT P6SM SCT050
      TEMPO 2818/2822 VRB15G25KT 6SM -TSRA BKN050CB
     FM290200 35004KT P6SM SCT120
     FM291500 31006KT P6SM SCT050=



000
FTUS42 KFFC 281559 AAB
TAFAHN
TAF AMD
KAHN 281559Z 2816/2912 02006KT P6SM SCT040
     FM290100 07003KT P6SM SCT120=



000
FTUS42 KFFC 281559 AAB
TAFMCN
TAF AMD
KMCN 281559Z 2816/2912 04003KT P6SM SCT040
     FM290100 00000KT P6SM SCT120=



000
FTUS42 KFFC 281559 AAB
TAFPDK
TAF AMD
KPDK 281559Z 2816/2912 32006KT P6SM SCT040
      TEMPO 2818/2822 VRB15G25KT 6SM -TSRA BKN050CB
     FM290100 00000KT P6SM SCT120=



000
FTUS42 KFFC 281401 AAA
TAFATL
TAF AMD
KATL 281401Z 2814/2918 33004KT P6SM FEW120 SCT250
     FM281600 32007KT P6SM SCT050
      TEMPO 2818/2822 -TSRA BKN050CB
     FM290200 35004KT P6SM SCT120
     FM291500 31006KT P6SM SCT050=



000
FTUS42 KFFC 281401 AAA
TAFFTY
TAF AMD
KFTY 281401Z 2814/2912 32006KT P6SM SCT040
     FM290100 00000KT P6SM SCT120=



000
FTUS42 KFFC 281401 AAA
TAFRYY
TAF AMD
KRYY 281401Z 2814/2912 32006KT P6SM SCT040
     FM290100 00000KT P6SM SCT120=



000
FTUS42 KFFC 281401 AAA
TAFCSG
TAF AMD
KCSG 281401Z 2814/2912 33006KT P6SM SCT040
     FM290100 00000KT P6SM SCT120=



000
FTUS42 KFFC 281401 AAA
TAFMCN
TAF AMD
KMCN 281401Z 2814/2912 04003KT P6SM SCT040
     FM290100 00000KT P6SM SCT120=



000
FTUS42 KFFC 281401 AAA
TAFPDK
TAF AMD
KPDK 281401Z 2814/2912 32006KT P6SM SCT040
     FM290100 00000KT P6SM SCT120=



000
FTUS42 KFFC 281401 AAA
TAFAHN
TAF AMD
KAHN 281401Z 2814/2912 02006KT P6SM SCT040
     FM290100 07003KT P6SM SCT120=



000
FTUS42 KFFC 281131
TAFRYY
TAF
KRYY 281131Z 2812/2912 00000KT P6SM FEW120 SCT250
     FM281400 32006KT P6SM SCT040
     FM290100 00000KT P6SM SCT120=



000
FTUS42 KFFC 281131
TAFAHN
TAF
KAHN 281131Z 2812/2912 04003KT P6SM FEW120 SCT250
      TEMPO 2812/2813 5SM BR
     FM281400 02006KT P6SM SCT040 PROB30 2821/2824 -SHRA BKN050
     FM290100 07003KT P6SM SCT120=



000
FTUS42 KFFC 281131
TAFFTY
TAF
KFTY 281131Z 2812/2912 00000KT P6SM FEW120 SCT250
      TEMPO 2812/2813 6SM BR
     FM281400 32006KT P6SM SCT040
     FM290100 00000KT P6SM SCT120=



000
FTUS42 KFFC 281131
TAFMCN
TAF
KMCN 281131Z 2812/2912 00000KT P6SM FEW120 SCT250
     FM281400 04003KT P6SM SCT040
     FM290100 00000KT P6SM SCT120=



000
FTUS42 KFFC 281131
TAFPDK
TAF
KPDK 281131Z 2812/2912 36004KT P6SM FEW120 SCT250
      TEMPO 2812/2813 5SM BR
     FM281400 32006KT P6SM SCT040
     FM290100 00000KT P6SM SCT120=



000
FTUS42 KFFC 281131
TAFATL
TAF
KATL 281131Z 2812/2918 33004KT P6SM FEW120 SCT250
     FM281600 32007KT P6SM SCT050
     FM290200 35004KT P6SM SCT120
     FM291500 31006KT P6SM SCT050=



000
FTUS42 KFFC 281131
TAFCSG
TAF
KCSG 281131Z 2812/2912 VRB03KT P6SM FEW120 SCT250
     FM281400 33006KT P6SM SCT040
     FM290100 00000KT P6SM SCT120=



000
FTUS42 KFFC 281131
TAFPDK
TAF
KPDK 281131Z 2812/2912 36004KT P6SM FEW120 SCT250
      TEMPO 2812/2813 5SM BR
     FM281400 32006KT P6SM SCT040
     FM290100 00000KT P6SM SCT120=



000
FTUS42 KFFC 281131
TAFRYY
TAF
KRYY 281131Z 2812/2912 00000KT P6SM FEW120 SCT250
     FM281400 32006KT P6SM SCT040
     FM290100 00000KT P6SM SCT120=



000
FTUS42 KFFC 281131
TAFATL
TAF
KATL 281131Z 2812/2918 33004KT P6SM FEW120 SCT250
     FM281600 32007KT P6SM SCT050
     FM290200 35004KT P6SM SCT120
     FM291500 31006KT P6SM SCT050=



000
FTUS42 KFFC 281131
TAFAHN
TAF
KAHN 281131Z 2812/2912 04003KT P6SM FEW120 SCT250
      TEMPO 2812/2813 5SM BR
     FM281400 02006KT P6SM SCT040 PROB30 2821/2824 -SHRA BKN050
     FM290100 07003KT P6SM SCT120=



000
FTUS42 KFFC 281131
TAFCSG
TAF
KCSG 281131Z 2812/2912 VRB03KT P6SM FEW120 SCT250
     FM281400 33006KT P6SM SCT040
     FM290100 00000KT P6SM SCT120=



000
FTUS42 KFFC 281131
TAFFTY
TAF
KFTY 281131Z 2812/2912 00000KT P6SM FEW120 SCT250
      TEMPO 2812/2813 6SM BR
     FM281400 32006KT P6SM SCT040
     FM290100 00000KT P6SM SCT120=



000
FTUS42 KFFC 281131
TAFMCN
TAF
KMCN 281131Z 2812/2912 00000KT P6SM FEW120 SCT250
     FM281400 04003KT P6SM SCT040
     FM290100 00000KT P6SM SCT120=



000
FTUS42 KFFC 280943 AAB
TAFATL
TAF AMD
KATL 280943Z 2810/2912 33004KT P6SM SCT250
     FM281600 32007KT P6SM SCT050
     FM290200 35004KT P6SM SCT120=



000
FTUS42 KFFC 280910 AAA
TAFPDK
TAF AMD
KPDK 280910Z 2809/2906 00000KT P6SM FEW100 SCT250
      TEMPO 2809/2813 5SM BR
     FM281300 34003KT P6SM SCT250
     FM281600 32006KT P6SM SCT050
     FM290100 00000KT P6SM SCT120=



000
FTUS42 KFFC 280733 AAA
TAFATL
TAF AMD
KATL 280733Z 2808/2912 VRB03KT P6SM FEW120 SCT250
     FM281200 34004KT P6SM SCT250
     FM281600 32007KT P6SM SCT050
     FM290200 35004KT P6SM SCT120=



000
FTUS42 KFFC 280525
TAFPDK
TAF
KPDK 280525Z 2806/2906 00000KT P6SM FEW100 SCT250
      TEMPO 2811/2813 6SM BR
     FM281300 34003KT P6SM SCT250
     FM281600 32006KT P6SM SCT050
     FM290100 00000KT P6SM SCT120=



000
FTUS42 KFFC 280525
TAFCSG
TAF
KCSG 280525Z 2806/2906 VRB03KT P6SM FEW080 SCT250
     FM281300 34004KT P6SM SCT250
     FM281600 33006KT P6SM SCT050
     FM290100 00000KT P6SM SCT120=



000
FTUS42 KFFC 280525
TAFAHN
TAF
KAHN 280525Z 2806/2906 VRB03KT P6SM FEW090 SCT250
      TEMPO 2811/2813 4SM BR
     FM281300 35004KT P6SM SCT250
     FM281600 02006KT P6SM SCT050 PROB30 2820/2824 -SHRA BKN050
     FM290100 07003KT P6SM SCT120=



000
FTUS42 KFFC 280525
TAFATL
TAF
KATL 280525Z 2806/2912 01004KT P6SM SCT250
     FM281200 34004KT P6SM SCT250
     FM281600 32007KT P6SM SCT050
     FM290200 35004KT P6SM SCT120=



000
FTUS42 KFFC 280525
TAFRYY
TAF
KRYY 280525Z 2806/2906 00000KT P6SM FEW100 SCT250
     FM281200 33003KT P6SM SCT250
     FM281600 32006KT P6SM SCT050
     FM290100 00000KT P6SM SCT120
      AMD NOT SKED TIL 281200=



000
FTUS42 KFFC 280525
TAFMCN
TAF
KMCN 280525Z 2806/2906 00000KT P6SM FEW120 SCT250
      TEMPO 2811/2813 4SM BR
     FM281400 04003KT P6SM SCT250
     FM281700 02006KT P6SM SCT050
     FM290100 00000KT P6SM SCT120=



000
FTUS42 KFFC 280525
TAFFTY
TAF
KFTY 280525Z 2806/2906 00000KT P6SM FEW100 SCT250
      TEMPO 2811/2813 6SM BR
     FM281300 34003KT P6SM SCT250
     FM281600 32006KT P6SM SCT050
     FM290100 00000KT P6SM SCT120=



000
FTUS42 KFFC 280525
TAFATL
TAF
KATL 280525Z 2806/2912 01004KT P6SM SCT250
     FM281200 34004KT P6SM SCT250
     FM281600 32007KT P6SM SCT050
     FM290200 35004KT P6SM SCT120=



000
FTUS42 KFFC 280525
TAFCSG
TAF
KCSG 280525Z 2806/2906 VRB03KT P6SM FEW080 SCT250
     FM281300 34004KT P6SM SCT250
     FM281600 33006KT P6SM SCT050
     FM290100 00000KT P6SM SCT120=



000
FTUS42 KFFC 280525
TAFRYY
TAF
KRYY 280525Z 2806/2906 00000KT P6SM FEW100 SCT250
     FM281200 33003KT P6SM SCT250
     FM281600 32006KT P6SM SCT050
     FM290100 00000KT P6SM SCT120
      AMD NOT SKED TIL 281200=



000
FTUS42 KFFC 280525
TAFAHN
TAF
KAHN 280525Z 2806/2906 VRB03KT P6SM FEW090 SCT250
      TEMPO 2811/2813 4SM BR
     FM281300 35004KT P6SM SCT250
     FM281600 02006KT P6SM SCT050 PROB30 2820/2824 -SHRA BKN050
     FM290100 07003KT P6SM SCT120=



000
FTUS42 KFFC 280525
TAFPDK
TAF
KPDK 280525Z 2806/2906 00000KT P6SM FEW100 SCT250
      TEMPO 2811/2813 6SM BR
     FM281300 34003KT P6SM SCT250
     FM281600 32006KT P6SM SCT050
     FM290100 00000KT P6SM SCT120=



000
FTUS42 KFFC 280525
TAFFTY
TAF
KFTY 280525Z 2806/2906 00000KT P6SM FEW100 SCT250
      TEMPO 2811/2813 6SM BR
     FM281300 34003KT P6SM SCT250
     FM281600 32006KT P6SM SCT050
     FM290100 00000KT P6SM SCT120=



000
FTUS42 KFFC 280525
TAFMCN
TAF
KMCN 280525Z 2806/2906 00000KT P6SM FEW120 SCT250
      TEMPO 2811/2813 4SM BR
     FM281400 04003KT P6SM SCT250
     FM281700 02006KT P6SM SCT050
     FM290100 00000KT P6SM SCT120=



000
FTUS42 KFFC 280330 AAB
TAFATL
TAF AMD
KATL 280330Z 2804/2906 01004KT P6SM SCT250
     FM281400 34005KT P6SM FEW040
     FM281800 32006KT P6SM SCT050
     FM290300 34004KT P6SM SCT250=



000
FTUS42 KFFC 280330 AAB
TAFATL
TAF AMD
KATL 280330Z 2804/2906 01004KT P6SM SCT250
     FM281400 34005KT P6SM FEW040
     FM281800 32006KT P6SM SCT050
     FM290300 34004KT P6SM SCT250=



000
FTUS42 KFFC 280209 AAA
TAFATL
TAF AMD
KATL 280209Z 2802/2906 01004KT P6SM SCT250
     FM281400 34005KT P6SM FEW040
     FM281800 32006KT P6SM SCT050
     FM290300 34004KT P6SM SCT250=



000
FTUS42 KFFC 280209 AAA
TAFATL
TAF AMD
KATL 280209Z 2802/2906 01004KT P6SM SCT250
     FM281400 34005KT P6SM FEW040
     FM281800 32006KT P6SM SCT050
     FM290300 34004KT P6SM SCT250=



000
FTUS42 KFFC 272332
TAFAHN
TAF
KAHN 272332Z 2800/2824 VRB03KT P6SM FEW050 SCT120
     FM280100 00000KT P6SM SCT250
     FM281500 34003KT P6SM FEW040
     FM281800 32006KT P6SM SCT050 PROB30 2820/2824 -SHRA BKN050=



000
FTUS42 KFFC 272332
TAFRYY
TAF
KRYY 272332Z 2800/2824 VRB04KT P6SM FEW050 SCT120
     FM280100 00000KT P6SM SCT250
     FM281500 34003KT P6SM FEW040
     FM281800 32006KT P6SM SCT050
      AMD NOT SKED 2804/2812=



000
FTUS42 KFFC 272332
TAFFTY
TAF
KFTY 272332Z 2800/2824 VRB04KT P6SM FEW050 SCT120
     FM280100 00000KT P6SM SCT250
     FM281500 34003KT P6SM FEW040
     FM281800 32006KT P6SM SCT050=



000
FTUS42 KFFC 272332
TAFATL
TAF
KATL 272332Z 2800/2906 32007KT P6SM FEW050 SCT120
     FM280200 01003KT P6SM SCT250
     FM281400 34005KT P6SM FEW040
     FM281800 32006KT P6SM SCT050
     FM290300 34004KT P6SM SCT250=



000
FTUS42 KFFC 272332
TAFPDK
TAF
KPDK 272332Z 2800/2824 VRB04KT P6SM FEW050 SCT120
     FM280100 00000KT P6SM SCT250
     FM281500 34003KT P6SM FEW040
     FM281800 32006KT P6SM SCT050=



000
FTUS42 KFFC 272332
TAFMCN
TAF
KMCN 272332Z 2800/2824 VRB03KT P6SM FEW050 SCT120
     FM280100 00000KT P6SM SCT250
     FM281500 34003KT P6SM FEW040
     FM281800 32006KT P6SM SCT050=



000
FTUS42 KFFC 272332
TAFCSG
TAF
KCSG 272332Z 2800/2824 VRB03KT P6SM FEW050 SCT120
     FM280100 00000KT P6SM SCT250
     FM281500 34003KT P6SM FEW040
     FM281800 32006KT P6SM SCT050=



000
FTUS42 KFFC 272211 AAD
TAFATL
TAF AMD
KATL 272211Z 2722/2824 34005KT P6SM VCSH SCT060
     FM280000 32003KT P6SM SCT120
     FM280600 01003KT P6SM SCT250
     FM281400 34005KT P6SM FEW040
     FM281800 32006KT P6SM SCT050=



000
FTUS42 KFFC 272211 AAD
TAFATL
TAF AMD
KATL 272211Z 2722/2824 34005KT P6SM VCSH SCT060
     FM280000 32003KT P6SM SCT120
     FM280600 01003KT P6SM SCT250
     FM281400 34005KT P6SM FEW040
     FM281800 32006KT P6SM SCT050=



000
FTUS42 KFFC 272202 AAE
TAFFTY
TAF AMD
KFTY 272202Z 2722/2818 32005KT P6SM VCSH SCT060
      TEMPO 2722/2723 VRB15G20KT 5SM -TSRA BKN060CB
     FM280100 00000KT P6SM SCT120
     FM281500 34003KT P6SM FEW040=



000
FTUS42 KFFC 272128 AAD
TAFFTY
TAF AMD
KFTY 272128Z 2721/2818 32005KT P6SM VCSH SCT060
      TEMPO 2721/2722 VRB15G20KT 5SM -TSRA BKN060CB
     FM280100 00000KT P6SM SCT120
     FM281500 34003KT P6SM FEW040=



000
FTUS42 KFFC 272128 AAD
TAFFTY
TAF AMD
KFTY 272128Z 2721/2818 32005KT P6SM VCSH SCT060
      TEMPO 2721/2722 VRB15G20KT 5SM -TSRA BKN060CB
     FM280100 00000KT P6SM SCT120
     FM281500 34003KT P6SM FEW040=



000
FTUS42 KFFC 272124 AAC
TAFFTY
TAF AMD
KFTY 272124Z 2721/2818 32005KT P6SM VCSH SCT060
      TEMPO 2721/2722 VRB15G20KT 5SM -SHRA BKN060
     FM280100 00000KT P6SM SCT120
     FM281500 34003KT P6SM FEW040=



000
FTUS42 KFFC 272111 AAC
TAFATL
TAF AMD
KATL 272111Z 2721/2824 32006KT P6SM VCSH SCT060
      TEMPO 2721/2723 VRB10G20KT 6SM -SHRA BKN060
     FM280100 30003KT P6SM SCT120
     FM280600 01003KT P6SM SCT250
     FM281400 34005KT P6SM FEW040
     FM281800 32006KT P6SM SCT050=



000
FTUS42 KFFC 272111 AAC
TAFATL
TAF AMD
KATL 272111Z 2721/2824 32006KT P6SM VCSH SCT060
      TEMPO 2721/2723 VRB10G20KT 6SM -SHRA BKN060
     FM280100 30003KT P6SM SCT120
     FM280600 01003KT P6SM SCT250
     FM281400 34005KT P6SM FEW040
     FM281800 32006KT P6SM SCT050=



000
FTUS42 KFFC 272034 AAB
TAFFTY
TAF AMD
KFTY 272034Z 2721/2818 32005KT P6SM VCSH SCT060
      TEMPO 2721/2722 6SM -SHRA BKN060
     FM280100 00000KT P6SM SCT120
     FM281500 34003KT P6SM FEW040=



000
FTUS42 KFFC 272034 AAB
TAFFTY
TAF AMD
KFTY 272034Z 2721/2818 32005KT P6SM VCSH SCT060
      TEMPO 2721/2722 6SM -SHRA BKN060
     FM280100 00000KT P6SM SCT120
     FM281500 34003KT P6SM FEW040=



000
FTUS42 KFFC 272034 AAB
TAFATL
TAF AMD
KATL 272034Z 2721/2824 32006KT P6SM VCSH SCT060
      TEMPO 2721/2723 6SM -SHRA BKN060
     FM280100 30003KT P6SM SCT120
     FM280600 01003KT P6SM SCT250
     FM281400 34005KT P6SM FEW040
     FM281800 32006KT P6SM SCT050=



000
FTUS42 KFFC 271955 AAA
TAFAHN
TAF AMD
KAHN 271955Z 2720/2818 VRB03KT P6SM VCSH SCT050
      TEMPO 2720/2722 6SM -SHRA
     FM280100 00000KT P6SM SCT120
     FM281600 34003KT P6SM FEW040=



000
FTUS42 KFFC 271954 AAA
TAFPDK
TAF AMD
KPDK 271954Z 2720/2818 32004KT P6SM VCSH SCT060
      TEMPO 2720/2722 6SM -SHRA BKN060
     FM280100 00000KT P6SM SCT120
     FM281500 34003KT P6SM FEW040=



000
FTUS42 KFFC 271935 AAA
TAFATL
TAF AMD
KATL 271935Z 2720/2824 32006KT P6SM VCSH SCT060
     FM280100 30003KT P6SM SCT120
     FM280600 01003KT P6SM SCT250
     FM281400 34005KT P6SM FEW040
     FM281800 32006KT P6SM SCT050=



000
FTUS42 KFFC 271935 AAA
TAFATL
TAF AMD
KATL 271935Z 2720/2824 32006KT P6SM VCSH SCT060
     FM280100 30003KT P6SM SCT120
     FM280600 01003KT P6SM SCT250
     FM281400 34005KT P6SM FEW040
     FM281800 32006KT P6SM SCT050=



000
FTUS42 KFFC 271932 AAA
TAFRYY
TAF AMD
KRYY 271932Z 2720/2818 32004KT P6SM VCSH SCT060
      TEMPO 2720/2722 6SM -SHRA
     FM280100 00000KT P6SM SCT120
     FM281500 34003KT P6SM FEW040=



000
FTUS42 KFFC 271932 AAA
TAFRYY
TAF AMD
KRYY 271932Z 2720/2818 32004KT P6SM VCSH SCT060
      TEMPO 2720/2722 6SM -SHRA
     FM280100 00000KT P6SM SCT120
     FM281500 34003KT P6SM FEW040=



000
FTUS42 KFFC 271857 AAA
TAFFTY
TAF AMD
KFTY 271857Z 2719/2818 32005KT P6SM VCSH SCT060
      TEMPO 2719/2721 6SM -SHRA BKN060
     FM280100 00000KT P6SM SCT120
     FM281500 34003KT P6SM FEW040=



000
FTUS42 KFFC 271857 AAA
TAFFTY
TAF AMD
KFTY 271857Z 2719/2818 32005KT P6SM VCSH SCT060
      TEMPO 2719/2721 6SM -SHRA BKN060
     FM280100 00000KT P6SM SCT120
     FM281500 34003KT P6SM FEW040=



000
FTUS42 KFFC 271726
TAFMCN
TAF
KMCN 271726Z 2718/2818 08004KT P6SM SCT050
     FM280100 00000KT P6SM SCT120
     FM281600 36004KT P6SM FEW040=



000
FTUS42 KFFC 271726
TAFATL
TAF
KATL 271726Z 2718/2824 32006KT P6SM VCSH SCT050
     FM280100 30003KT P6SM SCT120
     FM280600 01003KT P6SM SCT250
     FM281400 34005KT P6SM FEW040
     FM281800 32006KT P6SM SCT050=



000
FTUS42 KFFC 271726
TAFRYY
TAF
KRYY 271726Z 2718/2818 32004KT P6SM VCSH SCT040
     FM280100 00000KT P6SM SCT120
     FM281500 34003KT P6SM FEW040=



000
FTUS42 KFFC 271726
TAFCSG
TAF
KCSG 271726Z 2718/2818 02005KT P6SM SCT050
     FM280200 00000KT P6SM SCT120
     FM281600 35004KT P6SM FEW040=



000
FTUS42 KFFC 271726
TAFFTY
TAF
KFTY 271726Z 2718/2818 32004KT P6SM VCSH SCT050
     FM280100 00000KT P6SM SCT120
     FM281500 34003KT P6SM FEW040=



000
FTUS42 KFFC 271726
TAFRYY
TAF
KRYY 271726Z 2718/2818 32004KT P6SM VCSH SCT040
     FM280100 00000KT P6SM SCT120
     FM281500 34003KT P6SM FEW040=



000
FTUS42 KFFC 271726
TAFMCN
TAF
KMCN 271726Z 2718/2818 08004KT P6SM SCT050
     FM280100 00000KT P6SM SCT120
     FM281600 36004KT P6SM FEW040=



000
FTUS42 KFFC 271726
TAFAHN
TAF
KAHN 271726Z 2718/2818 VRB03KT P6SM VCSH SCT050
     FM280100 00000KT P6SM SCT120
     FM281600 34003KT P6SM FEW040=



000
FTUS42 KFFC 271726
TAFPDK
TAF
KPDK 271726Z 2718/2818 32004KT P6SM VCSH SCT050
     FM280100 00000KT P6SM SCT120
     FM281500 34003KT P6SM FEW040=



000
FTUS42 KFFC 271726
TAFAHN
TAF
KAHN 271726Z 2718/2818 VRB03KT P6SM VCSH SCT050
     FM280100 00000KT P6SM SCT120
     FM281600 34003KT P6SM FEW040=



000
FTUS42 KFFC 271726
TAFPDK
TAF
KPDK 271726Z 2718/2818 32004KT P6SM VCSH SCT050
     FM280100 00000KT P6SM SCT120
     FM281500 34003KT P6SM FEW040=



000
FTUS42 KFFC 271726
TAFFTY
TAF
KFTY 271726Z 2718/2818 32004KT P6SM VCSH SCT050
     FM280100 00000KT P6SM SCT120
     FM281500 34003KT P6SM FEW040=



000
FTUS42 KFFC 271726
TAFATL
TAF
KATL 271726Z 2718/2824 32006KT P6SM VCSH SCT050
     FM280100 30003KT P6SM SCT120
     FM280600 01003KT P6SM SCT250
     FM281400 34005KT P6SM FEW040
     FM281800 32006KT P6SM SCT050=



000
FTUS42 KFFC 271726
TAFCSG
TAF
KCSG 271726Z 2718/2818 02005KT P6SM SCT050
     FM280200 00000KT P6SM SCT120
     FM281600 35004KT P6SM FEW040=



000
FTUS42 KFFC 271402 AAA
TAFATL
TAF AMD
KATL 271402Z 2714/2818 33004KT P6SM SCT250
     FM271600 31006KT P6SM SCT050
     FM280100 30003KT P6SM SCT120
     FM281400 31005KT P6SM SCT050=



000
FTUS42 KFFC 271402 AAA
TAFATL
TAF AMD
KATL 271402Z 2714/2818 33004KT P6SM SCT250
     FM271600 31006KT P6SM SCT050
     FM280100 30003KT P6SM SCT120
     FM281400 31005KT P6SM SCT050=



000
FTUS42 KFFC 271120
TAFCSG
TAF
KCSG 271120Z 2712/2812 00000KT P6SM FEW080
     FM271400 04004KT P6SM SCT040
     FM271800 36006KT P6SM SCT050
     FM280200 00000KT P6SM SCT120=



000
FTUS42 KFFC 271120
TAFAHN
TAF
KAHN 271120Z 2712/2812 00000KT P6SM FEW080
      TEMPO 2712/2713 5SM BR
     FM271400 05004KT P6SM SCT050
     FM280100 00000KT P6SM SCT120=



000
FTUS42 KFFC 271120
TAFATL
TAF
KATL 271120Z 2712/2818 33004KT P6SM FEW080
     FM271500 31006KT P6SM SCT050
     FM280100 30003KT P6SM SCT120
     FM281400 31005KT P6SM SCT050=



000
FTUS42 KFFC 271120
TAFAHN
TAF
KAHN 271120Z 2712/2812 00000KT P6SM FEW080
      TEMPO 2712/2713 5SM BR
     FM271400 05004KT P6SM SCT050
     FM280100 00000KT P6SM SCT120=



000
FTUS42 KFFC 271120
TAFFTY
TAF
KFTY 271120Z 2712/2812 00000KT P6SM FEW080
      TEMPO 2712/2713 6SM BR
     FM271400 32004KT P6SM SCT050
     FM280100 30003KT P6SM SCT120=



000
FTUS42 KFFC 271120
TAFCSG
TAF
KCSG 271120Z 2712/2812 00000KT P6SM FEW080
     FM271400 04004KT P6SM SCT040
     FM271800 36006KT P6SM SCT050
     FM280200 00000KT P6SM SCT120=



000
FTUS42 KFFC 271120
TAFFTY
TAF
KFTY 271120Z 2712/2812 00000KT P6SM FEW080
      TEMPO 2712/2713 6SM BR
     FM271400 32004KT P6SM SCT050
     FM280100 30003KT P6SM SCT120=



000
FTUS42 KFFC 271120
TAFATL
TAF
KATL 271120Z 2712/2818 33004KT P6SM FEW080
     FM271500 31006KT P6SM SCT050
     FM280100 30003KT P6SM SCT120
     FM281400 31005KT P6SM SCT050=



000
FTUS42 KFFC 271120
TAFMCN
TAF
KMCN 271120Z 2712/2812 00000KT P6SM FEW080
      TEMPO 2712/2713 4SM BR
     FM271400 08004KT P6SM SCT050
     FM280100 00000KT P6SM SCT120=



000
FTUS42 KFFC 271120
TAFRYY
TAF
KRYY 271120Z 2712/2812 00000KT P6SM FEW080
     FM271300 33004KT P6SM SCT050
     FM280100 28003KT P6SM SCT120=



000
FTUS42 KFFC 271120
TAFPDK
TAF
KPDK 271120Z 2712/2812 35003KT P6SM FEW080
      TEMPO 2712/2713 6SM BR
     FM271500 33005KT P6SM SCT050
     FM280100 30003KT P6SM SCT120=



000
FTUS42 KFFC 271120
TAFMCN
TAF
KMCN 271120Z 2712/2812 00000KT P6SM FEW080
      TEMPO 2712/2713 4SM BR
     FM271400 08004KT P6SM SCT050
     FM280100 00000KT P6SM SCT120=



000
FTUS42 KFFC 271120
TAFPDK
TAF
KPDK 271120Z 2712/2812 35003KT P6SM FEW080
      TEMPO 2712/2713 6SM BR
     FM271500 33005KT P6SM SCT050
     FM280100 30003KT P6SM SCT120=



000
FTUS42 KFFC 271120
TAFRYY
TAF
KRYY 271120Z 2712/2812 00000KT P6SM FEW080
     FM271300 33004KT P6SM SCT050
     FM280100 28003KT P6SM SCT120=



000
FTUS42 KFFC 270952 AAB
TAFATL
TAF AMD
KATL 270952Z 2710/2812 33004KT P6SM FEW080
     FM271500 31006KT P6SM SCT050
     FM280100 30003KT P6SM SCT120=



000
FTUS42 KFFC 270952 AAA
TAFPDK
TAF AMD
KPDK 270952Z 2710/2806 35004KT P6SM FEW080
     FM271500 33005KT P6SM SCT050
     FM280100 30003KT P6SM SCT120=



000
FTUS42 KFFC 270952 AAA
TAFFTY
TAF AMD
KFTY 270952Z 2710/2806 00000KT P6SM FEW080
     FM271400 32004KT P6SM SCT050
     FM280100 30003KT P6SM SCT120=



000
FTUS42 KFFC 270952 AAA
TAFPDK
TAF AMD
KPDK 270952Z 2710/2806 35004KT P6SM FEW080
     FM271500 33005KT P6SM SCT050
     FM280100 30003KT P6SM SCT120=



000
FTUS42 KFFC 270952 AAB
TAFATL
TAF AMD
KATL 270952Z 2710/2812 33004KT P6SM FEW080
     FM271500 31006KT P6SM SCT050
     FM280100 30003KT P6SM SCT120=



000
FTUS42 KFFC 270952 AAA
TAFFTY
TAF AMD
KFTY 270952Z 2710/2806 00000KT P6SM FEW080
     FM271400 32004KT P6SM SCT050
     FM280100 30003KT P6SM SCT120=



000
FTUS42 KFFC 270735 AAA
TAFMCN
TAF AMD
KMCN 270735Z 2708/2806 00000KT P6SM FEW080
      TEMPO 2709/2713 4SM BR
     FM271400 08004KT P6SM SCT050=



000
FTUS42 KFFC 270735 AAA
TAFATL
TAF AMD
KATL 270735Z 2708/2812 VRB03KT P6SM FEW080
     FM271200 04004KT P6SM SCT110
     FM271500 02005KT P6SM SCT050
     FM280100 30003KT P6SM SCT120=



000
FTUS42 KFFC 270735 AAA
TAFMCN
TAF AMD
KMCN 270735Z 2708/2806 00000KT P6SM FEW080
      TEMPO 2709/2713 4SM BR
     FM271400 08004KT P6SM SCT050=



000
FTUS42 KFFC 270735 AAA
TAFATL
TAF AMD
KATL 270735Z 2708/2812 VRB03KT P6SM FEW080
     FM271200 04004KT P6SM SCT110
     FM271500 02005KT P6SM SCT050
     FM280100 30003KT P6SM SCT120=



000
FTUS42 KFFC 270520
TAFFTY
TAF
KFTY 270520Z 2706/2806 00000KT P6SM FEW080
     FM271400 04004KT P6SM SCT050
     FM280100 30003KT P6SM SCT120=



000
FTUS42 KFFC 270520
TAFRYY
TAF
KRYY 270520Z 2706/2806 00000KT P6SM FEW080
     FM271300 35004KT P6SM SCT050
     FM280100 28003KT P6SM SCT120
      AMD NOT SKED TIL 271200=



000
FTUS42 KFFC 270520
TAFATL
TAF
KATL 270520Z 2706/2812 VRB03KT P6SM FEW080
     FM271200 04004KT P6SM SCT110
     FM271500 02005KT P6SM SCT050
     FM280100 30003KT P6SM SCT120=



000
FTUS42 KFFC 270520
TAFRYY
TAF
KRYY 270520Z 2706/2806 00000KT P6SM FEW080
     FM271300 35004KT P6SM SCT050
     FM280100 28003KT P6SM SCT120
      AMD NOT SKED TIL 271200=



000
FTUS42 KFFC 270520
TAFFTY
TAF
KFTY 270520Z 2706/2806 00000KT P6SM FEW080
     FM271400 04004KT P6SM SCT050
     FM280100 30003KT P6SM SCT120=



000
FTUS42 KFFC 270520
TAFCSG
TAF
KCSG 270520Z 2706/2806 00000KT P6SM FEW080
     FM271400 06004KT P6SM SCT050=



000
FTUS42 KFFC 270520
TAFPDK
TAF
KPDK 270520Z 2706/2806 00000KT P6SM FEW080
     FM271300 03004KT P6SM SCT050
     FM280100 30003KT P6SM SCT120=



000
FTUS42 KFFC 270520
TAFATL
TAF
KATL 270520Z 2706/2812 VRB03KT P6SM FEW080
     FM271200 04004KT P6SM SCT110
     FM271500 02005KT P6SM SCT050
     FM280100 30003KT P6SM SCT120=



000
FTUS42 KFFC 270520
TAFMCN
TAF
KMCN 270520Z 2706/2806 00000KT P6SM FEW080
      TEMPO 2710/2713 4SM BR
     FM271400 08004KT P6SM SCT050=



000
FTUS42 KFFC 270520
TAFAHN
TAF
KAHN 270520Z 2706/2806 00000KT P6SM FEW080
      TEMPO 2711/2713 4SM BR
     FM271400 05004KT P6SM SCT050=



000
FTUS42 KFFC 270520
TAFCSG
TAF
KCSG 270520Z 2706/2806 00000KT P6SM FEW080
     FM271400 06004KT P6SM SCT050=



000
FTUS42 KFFC 270520
TAFPDK
TAF
KPDK 270520Z 2706/2806 00000KT P6SM FEW080
     FM271300 03004KT P6SM SCT050
     FM280100 30003KT P6SM SCT120=



000
FTUS42 KFFC 270520
TAFMCN
TAF
KMCN 270520Z 2706/2806 00000KT P6SM FEW080
      TEMPO 2710/2713 4SM BR
     FM271400 08004KT P6SM SCT050=



000
FTUS42 KFFC 270520
TAFAHN
TAF
KAHN 270520Z 2706/2806 00000KT P6SM FEW080
      TEMPO 2711/2713 4SM BR
     FM271400 05004KT P6SM SCT050=



000
FTUS42 KFFC 270336 AAB
TAFATL
TAF AMD
KATL 270336Z 2704/2806 VRB03KT P6SM SCT080
     FM271000 21004KT P6SM SCT110
     FM271500 23005KT P6SM SCT050=



000
FTUS42 KFFC 270336 AAB
TAFATL
TAF AMD
KATL 270336Z 2704/2806 VRB03KT P6SM SCT080
     FM271000 21004KT P6SM SCT110
     FM271500 23005KT P6SM SCT050=



000
FTUS42 KFFC 270217 AAA
TAFATL
TAF AMD
KATL 270217Z 2702/2806 VRB03KT P6SM SCT080
     FM271000 21004KT P6SM SCT110
     FM271500 23005KT P6SM SCT050=



000
FTUS42 KFFC 270217 AAA
TAFATL
TAF AMD
KATL 270217Z 2702/2806 VRB03KT P6SM SCT080
     FM271000 21004KT P6SM SCT110
     FM271500 23005KT P6SM SCT050=



000
FTUS42 KFFC 270108 AAA
TAFCSG
TAF AMD
KCSG 270108Z 2701/2724 VRB04KT P6SM VCSH SCT050
     FM270300 00000KT P6SM SCT080
     FM271600 11004KT P6SM SCT050=



000
FTUS42 KFFC 262332
TAFATL
TAF
KATL 262332Z 2700/2806 16005KT P6SM SCT050
     FM270100 VRB03KT P6SM SCT080
     FM271000 21004KT P6SM SCT110
     FM271500 23005KT P6SM SCT050=



000
FTUS42 KFFC 262332
TAFMCN
TAF
KMCN 262332Z 2700/2724 VRB04KT P6SM FEW050
     FM270100 00000KT P6SM SCT080
     FM271600 10004KT P6SM SCT050=



000
FTUS42 KFFC 262332
TAFFTY
TAF
KFTY 262332Z 2700/2724 VRB04KT P6SM SCT050 SCT250
     FM270100 00000KT P6SM SCT080
     FM271500 23004KT P6SM SCT050=



000
FTUS42 KFFC 262332
TAFAHN
TAF
KAHN 262332Z 2700/2724 VRB04KT P6SM SCT040
     FM270100 00000KT P6SM SCT080
     FM271000 00000KT 5SM BR SCT110
     FM271200 00000KT P6SM SCT110
     FM271600 20004KT P6SM SCT050=



000
FTUS42 KFFC 262332
TAFCSG
TAF
KCSG 262332Z 2700/2724 VRB04KT P6SM SCT050
     FM270100 00000KT P6SM SCT080
     FM271600 11004KT P6SM SCT050=



000
FTUS42 KFFC 262332
TAFRYY
TAF
KRYY 262332Z 2700/2724 17005KT P6SM VCSH SCT050 SCT250
     FM270100 VRB03KT P6SM SCT080
     FM271500 23005KT P6SM SCT050
      AMD NOT SKED 2704/2712=



000
FTUS42 KFFC 262332
TAFPDK
TAF
KPDK 262332Z 2700/2724 VRB04KT P6SM SCT050 SCT250
     FM270100 00000KT P6SM SCT080
     FM271500 23004KT P6SM SCT050=



000
FTUS42 KFFC 262154 AAB
TAFATL
TAF AMD
KATL 262154Z 2622/2724 16005KT P6SM VCSH SCT050
     FM270100 VRB03KT P6SM SCT080
     FM271000 21004KT P6SM SCT110
     FM271500 23005KT P6SM SCT050=



000
FTUS42 KFFC 261940 AAA
TAFATL
TAF AMD
KATL 261940Z 2620/2724 16005KT P6SM VCSH BKN050
     FM270100 VRB03KT P6SM SCT080
     FM271000 21004KT P6SM SCT110
     FM271500 23005KT P6SM SCT050=



000
FTUS42 KFFC 261927 AAA
TAFFTY
TAF AMD
KFTY 261927Z 2619/2718 16005KT P6SM SCT050 SCT250
      TEMPO 2619/2621 6SM -SHRA BKN050
     FM270100 00000KT P6SM SCT080
     FM271500 23004KT P6SM SCT050=



000
FTUS42 KFFC 261926 AAA
TAFPDK
TAF AMD
KPDK 261926Z 2619/2718 16005KT P6SM VCSH SCT050 SCT250
     FM270100 00000KT P6SM SCT080
     FM271500 23004KT P6SM SCT050=



000
FTUS42 KFFC 261728
TAFFTY
TAF
KFTY 261728Z 2618/2718 16005KT P6SM SCT050 SCT250
     FM270100 00000KT P6SM SCT080
     FM271500 23004KT P6SM SCT050=



000
FTUS42 KFFC 261728
TAFRYY
TAF
KRYY 261728Z 2618/2718 17005KT P6SM SCT050 SCT250
     FM270100 VRB03KT P6SM SCT080
     FM271500 23005KT P6SM SCT050=



000
FTUS42 KFFC 261728
TAFCSG
TAF
KCSG 261728Z 2618/2718 18006KT P6SM SCT050
     FM270100 00000KT P6SM SCT080
     FM271600 11004KT P6SM SCT050=



000
FTUS42 KFFC 261728
TAFATL
TAF
KATL 261728Z 2618/2724 16005KT P6SM SCT050 SCT250
     FM270100 VRB03KT P6SM SCT080
     FM271000 21004KT P6SM SCT110
     FM271500 23005KT P6SM SCT050=



000
FTUS42 KFFC 261728
TAFPDK
TAF
KPDK 261728Z 2618/2718 16005KT P6SM SCT050 SCT250
     FM270100 00000KT P6SM SCT080
     FM271500 23004KT P6SM SCT050=



000
FTUS42 KFFC 261728
TAFAHN
TAF
KAHN 261728Z 2618/2718 16005KT P6SM SCT040
     FM270100 00000KT P6SM SCT080
     FM271000 00000KT 5SM BR SCT110
     FM271200 00000KT P6SM SCT110
     FM271600 20004KT P6SM SCT050=



000
FTUS42 KFFC 261728
TAFMCN
TAF
KMCN 261728Z 2618/2718 08007KT P6SM FEW050
     FM270100 00000KT P6SM SCT080
     FM271600 10004KT P6SM SCT050=



000
FTUS42 KFFC 261728
TAFAHN
TAF
KAHN 261728Z 2618/2718 16005KT P6SM SCT040
     FM270100 00000KT P6SM SCT080
     FM271000 00000KT 5SM BR SCT110
     FM271200 00000KT P6SM SCT110
     FM271600 20004KT P6SM SCT050=



000
FTUS42 KFFC 261728
TAFPDK
TAF
KPDK 261728Z 2618/2718 16005KT P6SM SCT050 SCT250
     FM270100 00000KT P6SM SCT080
     FM271500 23004KT P6SM SCT050=



000
FTUS42 KFFC 261728
TAFMCN
TAF
KMCN 261728Z 2618/2718 08007KT P6SM FEW050
     FM270100 00000KT P6SM SCT080
     FM271600 10004KT P6SM SCT050=



000
FTUS42 KFFC 261728
TAFFTY
TAF
KFTY 261728Z 2618/2718 16005KT P6SM SCT050 SCT250
     FM270100 00000KT P6SM SCT080
     FM271500 23004KT P6SM SCT050=



000
FTUS42 KFFC 261728
TAFATL
TAF
KATL 261728Z 2618/2724 16005KT P6SM SCT050 SCT250
     FM270100 VRB03KT P6SM SCT080
     FM271000 21004KT P6SM SCT110
     FM271500 23005KT P6SM SCT050=



000
FTUS42 KFFC 261728
TAFCSG
TAF
KCSG 261728Z 2618/2718 18006KT P6SM SCT050
     FM270100 00000KT P6SM SCT080
     FM271600 11004KT P6SM SCT050=



000
FTUS42 KFFC 261728
TAFRYY
TAF
KRYY 261728Z 2618/2718 17005KT P6SM SCT050 SCT250
     FM270100 VRB03KT P6SM SCT080
     FM271500 23005KT P6SM SCT050=



000
FTUS42 KFFC 261600 AAB
TAFATL
TAF AMD
KATL 261600Z 2616/2718 16006KT P6SM FEW040 SCT250
     FM261900 15006KT P6SM SCT060
     FM270100 VRB03KT P6SM SCT080
     FM271400 20004KT P6SM SCT040=



000
FTUS42 KFFC 261600 AAB
TAFATL
TAF AMD
KATL 261600Z 2616/2718 16006KT P6SM FEW040 SCT250
     FM261900 15006KT P6SM SCT060
     FM270100 VRB03KT P6SM SCT080
     FM271400 20004KT P6SM SCT040=



000
FTUS42 KFFC 261340 AAA
TAFATL
TAF AMD
KATL 261340Z 2614/2718 17003KT P6SM SCT110 SCT250
     FM261600 16006KT P6SM FEW035
     FM261900 15006KT P6SM SCT060
     FM270100 VRB03KT P6SM SCT080
     FM271400 20004KT P6SM SCT040=



000
FTUS42 KFFC 261120
TAFRYY
TAF
KRYY 261120Z 2612/2712 00000KT P6SM SCT120 SCT250
     FM261400 19003KT P6SM FEW025 SCT120
     FM261700 18006KT P6SM SCT035
     FM262000 17005KT P6SM SCT060
     FM270100 00000KT P6SM SCT080=



000
FTUS42 KFFC 261120
TAFATL
TAF
KATL 261120Z 2612/2718 17003KT P6SM SCT120 SCT250
     FM261400 17004KT P6SM FEW025 SCT250
     FM261700 16006KT P6SM SCT035
     FM262000 15006KT P6SM SCT060
     FM270100 VRB03KT P6SM SCT080
     FM271400 20004KT P6SM SCT040=



000
FTUS42 KFFC 261120
TAFAHN
TAF
KAHN 261120Z 2612/2712 00000KT P6SM FEW050 SCT250
     FM261400 17005KT P6SM FEW025 SCT120
     FM261700 16005KT P6SM SCT035
     FM262000 14005KT P6SM SCT060
     FM270100 12003KT P6SM SCT080=



000
FTUS42 KFFC 261120
TAFFTY
TAF
KFTY 261120Z 2612/2712 00000KT P6SM SCT120 SCT250
     FM261400 18003KT P6SM FEW025 SCT120
     FM261700 17005KT P6SM SCT035
     FM262000 16005KT P6SM SCT060
     FM270100 00000KT P6SM SCT080=



000
FTUS42 KFFC 261120
TAFPDK
TAF
KPDK 261120Z 2612/2712 00000KT P6SM FEW060 SCT120 SCT250
     FM261400 18004KT P6SM FEW025 SCT120
     FM261700 17006KT P6SM SCT035
     FM262000 16005KT P6SM SCT060
     FM270100 00000KT P6SM SCT080=



000
FTUS42 KFFC 261120
TAFMCN
TAF
KMCN 261120Z 2612/2712 00000KT P6SM SCT250
      TEMPO 2612/2613 4SM BR
     FM261300 12004KT P6SM SCT025
     FM261600 14006KT P6SM SCT035
     FM261900 16006KT P6SM SCT060
     FM270100 11003KT P6SM SCT080=



000
FTUS42 KFFC 261120
TAFCSG
TAF
KCSG 261120Z 2612/2712 00000KT P6SM SCT250
     FM261400 12004KT P6SM FEW025
     FM261700 18006KT P6SM SCT035
     FM262000 16006KT P6SM SCT060
     FM270100 12003KT P6SM SCT080=



000
FTUS42 KFFC 260956 AAB
TAFATL
TAF AMD
KATL 260956Z 2610/2712 VRB03KT P6SM FEW060 BKN120 BKN250
     FM261400 19004KT P6SM SCT025 SCT120
     FM261700 17006KT P6SM SCT035
     FM262000 16006KT P6SM SCT060
     FM270100 VRB03KT P6SM SCT080=



000
FTUS42 KFFC 260956 AAB
TAFFTY
TAF AMD
KFTY 260956Z 2610/2706 00000KT P6SM FEW060 BKN120 BKN250
     FM261400 19003KT P6SM SCT025 SCT120
     FM261700 17005KT P6SM SCT035
     FM262000 16005KT P6SM SCT060
     FM270100 00000KT P6SM SCT080=



000
FTUS42 KFFC 260956 AAB
TAFPDK
TAF AMD
KPDK 260956Z 2610/2706 00000KT P6SM FEW060 BKN120 BKN250
     FM261400 19004KT P6SM SCT025 SCT120
     FM261700 17006KT P6SM SCT035
     FM262000 16005KT P6SM SCT060
     FM270100 00000KT P6SM SCT080=



000
FTUS42 KFFC 260956 AAA
TAFAHN
TAF AMD
KAHN 260956Z 2610/2706 00000KT P6SM FEW050 SCT250
     FM261400 17005KT P6SM SCT025 SCT120
     FM261700 16005KT P6SM SCT035
     FM262000 14005KT P6SM SCT060
     FM270100 12003KT P6SM SCT080=



000
FTUS42 KFFC 260730 AAA
TAFPDK
TAF AMD
KPDK 260730Z 2608/2706 00000KT P6SM SCT060 BKN250
     FM261400 19004KT P6SM SCT025
     FM261700 20006KT P6SM SCT035
     FM262000 17005KT P6SM SCT060
     FM270100 00000KT P6SM SCT080=



000
FTUS42 KFFC 260730 AAA
TAFFTY
TAF AMD
KFTY 260730Z 2608/2706 00000KT P6SM SCT060 BKN250
     FM261400 19003KT P6SM SCT025
     FM261700 20005KT P6SM SCT035
     FM262000 17005KT P6SM SCT060
     FM270100 00000KT P6SM SCT080=



000
FTUS42 KFFC 260730 AAA
TAFATL
TAF AMD
KATL 260730Z 2608/2712 VRB03KT P6SM SCT060 BKN250
     FM261300 19004KT P6SM SCT025
     FM261700 20006KT P6SM SCT035
     FM262000 17006KT P6SM SCT060
     FM270100 VRB03KT P6SM SCT080=



000
FTUS42 KFFC 260520
TAFATL
TAF
KATL 260520Z 2606/2712 VRB03KT P6SM SCT250
     FM261300 19004KT P6SM SCT025
     FM261700 20006KT P6SM SCT035
     FM262000 17006KT P6SM SCT060
     FM270100 VRB03KT P6SM SCT080=



000
FTUS42 KFFC 260520
TAFPDK
TAF
KPDK 260520Z 2606/2706 00000KT P6SM SCT250
     FM261400 19004KT P6SM SCT025
     FM261700 20006KT P6SM SCT035
     FM262000 17005KT P6SM SCT060
     FM270100 00000KT P6SM SCT080=



000
FTUS42 KFFC 260520
TAFMCN
TAF
KMCN 260520Z 2606/2706 00000KT P6SM SCT250
     FM261300 12004KT P6SM SCT025
     FM261600 14006KT P6SM SCT035
     FM261900 16006KT P6SM SCT060
     FM270100 11003KT P6SM SCT080=



000
FTUS42 KFFC 260520
TAFAHN
TAF
KAHN 260520Z 2606/2706 12003KT P6SM FEW050 SCT250
      TEMPO 2608/2612 BKN050
     FM261400 16005KT P6SM SCT025
     FM261700 19005KT P6SM SCT035
     FM262000 16005KT P6SM SCT060
     FM270100 12003KT P6SM SCT080=



000
FTUS42 KFFC 260520
TAFRYY
TAF
KRYY 260520Z 2606/2706 00000KT P6SM SCT250
     FM261400 20003KT P6SM SCT025
     FM261700 21006KT P6SM SCT035
     FM262000 20005KT P6SM SCT060
     FM270100 00000KT P6SM SCT080
      AMD NOT SKED TIL 261200=



000
FTUS42 KFFC 260520
TAFCSG
TAF
KCSG 260520Z 2606/2706 00000KT P6SM SCT250
     FM261300 12004KT P6SM SCT025
     FM261600 14006KT P6SM SCT035
     FM261900 17006KT P6SM SCT060
     FM270100 12003KT P6SM SCT080=



000
FTUS42 KFFC 260520
TAFFTY
TAF
KFTY 260520Z 2606/2706 00000KT P6SM SCT250
     FM261400 19003KT P6SM SCT025
     FM261700 20005KT P6SM SCT035
     FM262000 17005KT P6SM SCT060
     FM270100 00000KT P6SM SCT080=



    US Dept of Commerce
    National Oceanic and Atmospheric Administration
    National Weather Service
    1325 East West Highway
    Silver Spring, MD 20910
    Page Author: NWS Internet Services Team
Disclaimer
Information Quality
Credits
Glossary
Privacy Policy
Freedom of Information Act (FOIA)
About Us
Career Opportunities